createdAt,value
2018-04-17T00:01:31.270Z,98956
2018-04-17T00:04:03.610Z,98950
2018-04-17T00:06:35.809Z,98958
2018-04-17T00:09:08.050Z,98959
2018-04-17T00:11:40.210Z,98966
2018-04-17T00:14:12.409Z,98959
2018-04-17T00:16:44.550Z,98961
2018-04-17T00:19:16.689Z,98966
2018-04-17T00:21:48.809Z,98968
2018-04-17T00:24:21.009Z,98962
2018-04-17T00:26:53.851Z,98961
2018-04-17T00:29:26.109Z,98963
2018-04-17T00:31:58.330Z,98968
2018-04-17T00:34:31.308Z,98963
2018-04-17T00:37:03.450Z,98969
2018-04-17T00:39:35.708Z,98966
2018-04-17T00:42:07.888Z,98964
2018-04-17T00:44:40.068Z,98971
2018-04-17T00:47:12.228Z,98974
2018-04-17T00:49:44.409Z,98974
2018-04-17T00:52:16.575Z,98969
2018-04-17T00:54:48.810Z,98965
2018-04-17T00:57:20.950Z,98968
2018-04-17T00:59:53.130Z,98971
2018-04-17T01:02:25.290Z,98976
2018-04-17T01:04:57.590Z,98972
2018-04-17T01:07:29.818Z,98977
2018-04-17T01:10:02.819Z,98975
2018-04-17T01:12:34.991Z,98985
2018-04-17T01:15:07.291Z,98987
2018-04-17T01:17:39.455Z,98983
2018-04-17T01:20:11.670Z,98982
2018-04-17T01:22:43.850Z,98979
2018-04-17T01:25:16.071Z,98987
2018-04-17T01:27:48.230Z,98987
2018-04-17T01:30:20.410Z,98985
2018-04-17T01:32:52.610Z,98984
2018-04-17T01:35:24.851Z,98991
2018-04-17T01:37:57.010Z,98992
2018-04-17T01:40:29.149Z,98994
2018-04-17T01:43:01.390Z,99002
2018-04-17T01:45:33.610Z,99002
2018-04-17T01:48:05.771Z,99007
2018-04-17T01:50:32.829Z,99004
2018-04-17T01:53:05.152Z,99004
2018-04-17T01:55:37.351Z,99010
2018-04-17T01:58:09.552Z,99016
2018-04-17T02:00:41.713Z,99021
2018-04-17T02:03:14.633Z,99036
2018-04-17T02:05:46.816Z,99032
2018-04-17T02:08:19.013Z,99026
2018-04-17T02:10:51.133Z,99034
2018-04-17T02:13:23.292Z,99032
2018-04-17T02:15:55.373Z,99030
2018-04-17T02:18:27.453Z,99039
2018-04-17T02:20:59.673Z,99042
2018-04-17T02:23:31.853Z,99048
2018-04-17T02:26:04.813Z,99035
2018-04-17T02:28:36.972Z,99048
2018-04-17T02:31:09.193Z,99039
2018-04-17T02:33:41.354Z,99044
2018-04-17T02:36:13.614Z,99049
2018-04-17T02:38:45.773Z,99043
2018-04-17T02:41:18.041Z,99050
2018-04-17T02:43:50.233Z,99041
2018-04-17T02:46:22.493Z,99044
2018-04-17T02:48:54.592Z,99055
2018-04-17T02:51:26.754Z,99060
2018-04-17T02:53:58.892Z,99057
2018-04-17T02:56:31.052Z,99066
2018-04-17T02:59:03.332Z,99064
2018-04-17T03:01:35.540Z,99067
2018-04-17T03:04:07.731Z,99073
2018-04-17T03:06:40.671Z,99077
2018-04-17T03:09:12.851Z,99076
2018-04-17T03:11:45.091Z,99073
2018-04-17T03:14:17.290Z,99075
2018-04-17T03:16:49.471Z,99083
2018-04-17T03:19:21.631Z,99082
2018-04-17T03:21:53.831Z,99085
2018-04-17T03:24:26.731Z,99086
2018-04-17T03:26:59.671Z,99090
2018-04-17T03:29:31.836Z,99096
2018-04-17T03:32:03.973Z,99104
2018-04-17T03:34:37.691Z,99113
2018-04-17T03:37:09.950Z,99101
2018-04-17T03:39:42.213Z,99108
2018-04-17T03:42:14.510Z,99109
2018-04-17T03:44:46.749Z,99104
2018-04-17T03:47:19.010Z,99111
2018-04-17T03:49:51.330Z,99102
2018-04-17T03:52:23.609Z,99101
2018-04-17T03:54:55.830Z,99106
2018-04-17T03:57:28.049Z,99104
2018-04-17T04:00:00.190Z,99109
2018-04-17T04:02:32.409Z,99117
2018-04-17T04:05:04.549Z,99121
2018-04-17T04:07:36.749Z,99127
2018-04-17T04:10:08.870Z,99125
2018-04-17T04:12:41.029Z,99136
2018-04-17T04:15:13.130Z,99142
2018-04-17T04:18:03.449Z,99140
2018-04-17T04:20:53.649Z,99148
2018-04-17T04:26:32.636Z,99144
2018-04-17T04:29:04.908Z,99160
2018-04-17T04:31:37.208Z,99157
2018-04-17T04:34:09.569Z,99160
2018-04-17T04:36:42.108Z,99164
2018-04-17T04:39:14.469Z,99167
2018-04-17T04:41:46.709Z,99172
2018-04-17T04:44:18.829Z,99167
2018-04-17T04:46:51.009Z,99172
2018-04-17T04:49:23.192Z,99181
2018-04-17T04:51:56.069Z,99190
2018-04-17T04:54:28.190Z,99197
2018-04-17T04:57:00.348Z,99193
2018-04-17T04:59:32.549Z,99207
2018-04-17T05:02:04.909Z,99203
2018-04-17T05:04:37.209Z,99210
2018-04-17T05:07:09.489Z,99211
2018-04-17T05:09:41.654Z,99210
2018-04-17T05:12:13.830Z,99222
2018-04-17T05:14:46.012Z,99225
2018-04-17T05:17:18.310Z,99225
2018-04-17T05:19:50.510Z,99222
2018-04-17T05:22:22.750Z,99233
2018-04-17T05:24:54.970Z,99231
2018-04-17T05:27:27.170Z,99228
2018-04-17T05:29:59.309Z,99240
2018-04-17T05:32:31.490Z,99238
2018-04-17T05:35:03.690Z,99254
2018-04-17T05:37:36.631Z,99262
2018-04-17T05:40:08.747Z,99270
2018-04-17T05:42:40.974Z,99266
2018-04-17T05:45:13.151Z,99269
2018-04-17T05:47:45.391Z,99258
2018-04-17T05:50:17.571Z,99265
2018-04-17T05:52:49.750Z,99273
2018-04-17T05:55:21.871Z,99270
2018-04-17T05:57:54.114Z,99274
2018-04-17T06:00:26.311Z,99278
2018-04-17T06:02:58.513Z,99293
2018-04-17T06:05:30.718Z,99293
2018-04-17T06:08:02.911Z,99290
2018-04-17T06:10:35.071Z,99295
2018-04-17T06:13:07.251Z,99291
2018-04-17T06:15:39.450Z,99295
2018-04-17T06:18:11.630Z,99290
2018-04-17T06:20:43.770Z,99307
2018-04-17T06:23:16.660Z,99310
2018-04-17T06:25:48.891Z,99312
2018-04-17T06:28:21.092Z,99315
2018-04-17T06:30:54.011Z,99322
2018-04-17T06:33:26.190Z,99326
2018-04-17T06:35:58.310Z,99328
2018-04-17T06:38:30.550Z,99332
2018-04-17T06:41:03.491Z,99335
2018-04-17T06:43:35.690Z,99340
2018-04-17T06:46:07.870Z,99342
2018-04-17T06:48:40.070Z,99348
2018-04-17T06:51:12.270Z,99352
2018-04-17T06:53:44.490Z,99348
2018-04-17T06:56:17.369Z,99346
2018-04-17T06:58:49.630Z,99351
2018-04-17T07:01:21.750Z,99343
2018-04-17T07:03:53.930Z,99356
2018-04-17T07:06:26.110Z,99359
2018-04-17T07:08:58.312Z,99367
2018-04-17T07:11:30.471Z,99366
2018-04-17T07:14:02.691Z,99358
2018-04-17T07:16:34.890Z,99369
2018-04-17T07:19:07.331Z,99367
2018-04-17T07:21:39.550Z,99369
2018-04-17T07:24:11.792Z,99377
2018-04-17T07:26:43.974Z,99382
2018-04-17T07:29:16.151Z,99385
2018-04-17T07:31:48.311Z,99392
2018-04-17T07:34:20.471Z,99397
2018-04-17T07:36:52.590Z,99397
2018-04-17T07:39:24.810Z,99396
2018-04-17T07:41:56.932Z,99394
2018-04-17T07:44:29.171Z,99396
2018-04-17T07:47:28.328Z,99409
2018-04-17T07:50:00.531Z,99411
2018-04-17T07:52:33.411Z,99405
2018-04-17T07:55:05.671Z,99402
2018-04-17T07:57:37.873Z,99402
2018-04-17T08:00:10.159Z,99400
2018-04-17T08:02:42.310Z,99410
2018-04-17T08:05:14.554Z,99415
2018-04-17T08:07:46.691Z,99421
2018-04-17T08:10:18.890Z,99415
2018-04-17T08:12:51.030Z,99417
2018-04-17T08:15:23.210Z,99414
2018-04-17T08:17:55.390Z,99413
2018-04-17T08:20:28.311Z,99415
2018-04-17T08:23:00.492Z,99429
2018-04-17T08:25:32.690Z,99429
2018-04-17T08:28:04.811Z,99434
2018-04-17T08:30:37.030Z,99427
2018-04-17T08:33:09.250Z,99432
2018-04-17T08:35:41.510Z,99427
2018-04-17T08:38:13.711Z,99436
2018-04-17T08:40:46.030Z,99432
2018-04-17T08:43:18.913Z,99438
2018-04-17T08:45:51.953Z,99436
2018-04-17T08:48:24.130Z,99433
2018-04-17T08:50:56.330Z,99444
2018-04-17T08:53:29.230Z,99440
2018-04-17T08:56:01.390Z,99442
2018-04-17T08:58:34.290Z,99436
2018-04-17T09:01:06.470Z,99441
2018-04-17T09:03:38.610Z,99441
2018-04-17T09:06:11.590Z,99432
2018-04-17T09:08:44.530Z,99433
2018-04-17T09:11:16.770Z,99428
2018-04-17T09:13:48.929Z,99433
2018-04-17T09:16:21.170Z,99431
2018-04-17T09:18:54.070Z,99423
2018-04-17T09:21:27.033Z,99429
2018-04-17T09:23:59.214Z,99437
2018-04-17T09:26:32.170Z,99433
2018-04-17T09:29:04.354Z,99436
2018-04-17T09:31:36.591Z,99436
2018-04-17T09:34:08.770Z,99434
2018-04-17T09:36:40.955Z,99431
2018-04-17T09:39:13.150Z,99437
2018-04-17T09:41:45.430Z,99436
2018-04-17T09:44:17.610Z,99434
2018-04-17T09:46:49.832Z,99437
2018-04-17T09:49:21.950Z,99432
2018-04-17T09:51:54.151Z,99440
2018-04-17T09:54:26.330Z,99434
2018-04-17T09:56:58.509Z,99442
2018-04-17T09:59:31.430Z,99433
2018-04-17T10:02:03.674Z,99448
2018-04-17T10:04:35.871Z,99436
2018-04-17T10:07:08.070Z,99437
2018-04-17T10:09:40.250Z,99430
2018-04-17T10:12:12.490Z,99429
2018-04-17T10:14:44.650Z,99427
2018-04-17T10:17:16.928Z,99433
2018-04-17T10:19:49.091Z,99422
2018-04-17T10:22:21.311Z,99421
2018-04-17T10:24:54.170Z,99422
2018-04-17T10:27:26.421Z,99424
2018-04-17T10:29:58.570Z,99425
2018-04-17T10:32:30.850Z,99424
2018-04-17T10:35:03.750Z,99425
2018-04-17T10:37:36.010Z,99430
2018-04-17T10:40:08.290Z,99421
2018-04-17T10:42:41.342Z,99420
2018-04-17T10:45:13.550Z,99428
2018-04-17T10:47:45.732Z,99431
2018-04-17T10:50:17.910Z,99426
2018-04-17T10:52:50.850Z,99433
2018-04-17T10:55:22.970Z,99431
2018-04-17T10:57:55.910Z,99423
2018-04-17T11:00:28.096Z,99429
2018-04-17T11:03:01.111Z,99418
2018-04-17T11:05:34.010Z,99411
2018-04-17T11:08:06.190Z,99416
2018-04-17T11:10:38.391Z,99410
2018-04-17T11:13:10.650Z,99420
2018-04-17T11:15:42.797Z,99419
2018-04-17T11:18:15.010Z,99410
2018-04-17T11:20:47.131Z,99413
2018-04-17T11:23:19.330Z,99419
2018-04-17T11:25:51.451Z,99414
2018-04-17T11:28:23.650Z,99408
2018-04-17T11:30:55.774Z,99406
2018-04-17T11:33:28.010Z,99415
2018-04-17T11:36:00.250Z,99418
2018-04-17T11:38:32.511Z,99412
2018-04-17T11:41:04.670Z,99413
2018-04-17T11:43:37.691Z,99416
2018-04-17T11:46:09.850Z,99407
2018-04-17T11:48:42.076Z,99409
2018-04-17T11:51:14.250Z,99409
2018-04-17T11:53:46.430Z,99405
2018-04-17T11:56:18.590Z,99412
2018-04-17T11:58:50.811Z,99408
2018-04-17T12:01:22.990Z,99403
2018-04-17T12:03:55.970Z,99400
2018-04-17T12:06:28.950Z,99392
2018-04-17T12:09:01.210Z,99401
2018-04-17T12:11:33.369Z,99391
2018-04-17T12:14:05.570Z,99390
2018-04-17T12:16:38.470Z,99392
2018-04-17T12:19:10.650Z,99392
2018-04-17T12:21:42.810Z,99397
2018-04-17T12:24:14.949Z,99398
2018-04-17T12:26:47.929Z,99393
2018-04-17T12:29:20.889Z,99384
2018-04-17T12:31:53.108Z,99387
2018-04-17T12:34:21.009Z,99389
2018-04-17T12:36:53.228Z,99388
2018-04-17T12:39:26.171Z,99384
2018-04-17T12:41:58.328Z,99384
2018-04-17T12:44:31.310Z,99386
2018-04-17T12:49:24.268Z,99386
2018-04-17T12:51:56.505Z,99395
2018-04-17T12:54:28.608Z,99382
2018-04-17T12:57:00.808Z,99382
2018-04-17T12:59:33.007Z,99383
2018-04-17T13:02:05.228Z,99378
2018-04-17T13:04:37.372Z,99377
2018-04-17T13:07:09.660Z,99377
2018-04-17T13:09:41.867Z,99381
2018-04-17T13:12:14.088Z,99376
2018-04-17T13:14:46.272Z,99375
2018-04-17T13:17:19.269Z,99372
2018-04-17T13:19:51.389Z,99368
2018-04-17T13:22:23.569Z,99364
2018-04-17T13:24:55.749Z,99365
2018-04-17T13:27:28.050Z,99359
2018-04-17T13:30:00.230Z,99364
2018-04-17T13:32:32.450Z,99361
2018-04-17T13:35:04.650Z,99366
2018-04-17T13:37:36.910Z,99367
2018-04-17T13:40:09.850Z,99359
2018-04-17T13:42:42.070Z,99357
2018-04-17T13:45:14.271Z,99360
2018-04-17T13:47:46.474Z,99366
2018-04-17T13:50:18.670Z,99362
2018-04-17T13:52:50.911Z,99362
2018-04-17T13:55:23.049Z,99358
2018-04-17T13:57:55.290Z,99361
2018-04-17T14:00:28.170Z,99363
2018-04-17T14:03:01.189Z,99354
2018-04-17T14:05:33.447Z,99359
2018-04-17T14:08:05.684Z,99363
2018-04-17T14:10:37.844Z,99360
2018-04-17T14:13:10.025Z,99363
2018-04-17T14:15:42.211Z,99360
2018-04-17T14:18:15.145Z,99370
2018-04-17T14:20:47.368Z,99358
2018-04-17T14:23:20.344Z,99359
2018-04-17T14:25:52.383Z,99357
2018-04-17T14:28:24.588Z,99363
2018-04-17T14:30:56.807Z,99360
2018-04-17T14:33:29.119Z,99365
2018-04-17T14:36:01.308Z,99355
2018-04-17T14:38:33.508Z,99356
2018-04-17T14:41:05.646Z,99357
2018-04-17T14:43:37.603Z,99353
2018-04-17T14:46:09.538Z,99361
2018-04-17T14:48:41.726Z,99371
2018-04-17T14:51:13.772Z,99367
2018-04-17T14:53:45.932Z,99373
2018-04-17T14:56:18.812Z,99380
2018-04-17T14:58:51.752Z,99387
2018-04-17T15:01:23.988Z,99374
2018-04-17T15:03:56.242Z,99379
2018-04-17T15:06:29.019Z,99387
2018-04-17T15:09:01.216Z,99382
2018-04-17T15:11:33.724Z,99386
2018-04-17T15:14:05.995Z,99385
2018-04-17T15:16:38.185Z,99386
2018-04-17T15:19:10.160Z,99388
2018-04-17T15:21:42.197Z,99389
2018-04-17T15:24:14.470Z,99387
2018-04-17T15:26:46.629Z,99394
2018-04-17T15:29:20.313Z,99388
2018-04-17T15:31:53.745Z,99390
2018-04-17T15:34:25.925Z,99390
2018-04-17T15:36:58.869Z,99388
2018-04-17T15:39:31.227Z,99389
2018-04-17T15:42:03.470Z,99393
2018-04-17T15:44:35.740Z,99392
2018-04-17T15:47:08.007Z,99395
2018-04-17T15:49:40.227Z,99396
2018-04-17T15:52:12.295Z,99398
2018-04-17T15:54:44.687Z,99395
2018-04-17T15:57:18.983Z,99392
2018-04-17T15:59:52.127Z,99398
2018-04-17T16:02:24.660Z,99397
2018-04-17T16:04:56.974Z,99393
2018-04-17T16:07:29.214Z,99404
2018-04-17T16:10:01.375Z,99396
2018-04-17T16:12:34.395Z,99386
2018-04-17T16:15:06.715Z,99391
2018-04-17T16:17:38.918Z,99383
2018-04-17T16:20:11.981Z,99384
2018-04-17T16:22:44.255Z,99384
2018-04-17T16:25:16.500Z,99383
2018-04-17T16:27:48.755Z,99380
2018-04-17T16:30:21.105Z,99387
2018-04-17T16:32:53.395Z,99390
2018-04-17T16:35:25.663Z,99392
2018-04-17T16:37:57.915Z,99393
2018-04-17T16:40:30.156Z,99392
2018-04-17T16:43:02.178Z,99397
2018-04-17T16:45:34.575Z,99402
2018-04-17T16:48:07.535Z,99406
2018-04-17T16:50:39.855Z,99411
2018-04-17T16:53:12.755Z,99405
2018-04-17T16:55:45.034Z,99409
2018-04-17T16:58:17.995Z,99399
2018-04-17T17:00:50.955Z,99409
2018-04-17T17:03:23.134Z,99412
2018-04-17T17:05:55.435Z,99407
2018-04-17T17:08:27.659Z,99417
2018-04-17T17:11:00.095Z,99418
2018-04-17T17:13:32.319Z,99420
2018-04-17T17:16:04.619Z,99425
2018-04-17T17:18:36.898Z,99419
2018-04-17T17:21:09.215Z,99422
2018-04-17T17:23:41.355Z,99427
2018-04-17T17:26:13.595Z,99428
2018-04-17T17:28:45.854Z,99436
2018-04-17T17:31:18.086Z,99443
2018-04-17T17:33:50.315Z,99453
2018-04-17T17:36:22.515Z,99456
2018-04-17T17:38:54.814Z,99460
2018-04-17T17:41:27.185Z,99462
2018-04-17T17:44:00.199Z,99477
2018-04-17T17:46:32.715Z,99469
2018-04-17T17:49:06.155Z,99475
2018-04-17T17:51:38.494Z,99479
2018-04-17T17:54:10.735Z,99482
2018-04-17T17:56:43.035Z,99483
2018-04-17T17:59:15.264Z,99496
2018-04-17T18:01:48.335Z,99495
2018-04-17T18:04:20.538Z,99506
2018-04-17T18:06:52.875Z,99517
2018-04-17T18:09:26.016Z,99518
2018-04-17T18:11:58.298Z,99520
2018-04-17T18:14:30.554Z,99528
2018-04-17T18:17:03.554Z,99529
2018-04-17T18:19:35.838Z,99531
2018-04-17T18:22:08.096Z,99539
2018-04-17T18:24:41.035Z,99539
2018-04-17T18:27:13.295Z,99550
2018-04-17T18:29:45.515Z,99553
2018-04-17T18:32:17.714Z,99570
2018-04-17T18:34:49.914Z,99563
2018-04-17T18:37:22.155Z,99573
2018-04-17T18:39:54.414Z,99583
2018-04-17T18:42:26.815Z,99588
2018-04-17T18:44:59.018Z,99594
2018-04-17T18:47:31.314Z,99590
2018-04-17T18:50:03.634Z,99590
2018-04-17T18:52:35.955Z,99591
2018-04-17T18:55:08.194Z,99603
2018-04-17T18:57:41.194Z,99612
2018-04-17T19:00:13.455Z,99617
2018-04-17T19:02:45.694Z,99612
2018-04-17T19:05:17.913Z,99624
2018-04-17T19:07:50.234Z,99626
2018-04-17T19:10:22.411Z,99629
2018-04-17T19:12:54.697Z,99639
2018-04-17T19:15:27.017Z,99640
2018-04-17T19:17:59.337Z,99651
2018-04-17T19:20:31.532Z,99646
2018-04-17T19:23:03.833Z,99653
2018-04-17T19:25:36.092Z,99654
2018-04-17T19:28:08.393Z,99657
2018-04-17T19:30:40.672Z,99657
2018-04-17T19:33:12.954Z,99651
2018-04-17T19:35:45.196Z,99650
2018-04-17T19:38:17.454Z,99659
2018-04-17T19:40:49.593Z,99664
2018-04-17T19:43:21.913Z,99669
2018-04-17T19:45:54.194Z,99669
2018-04-17T19:48:26.537Z,99667
2018-04-17T19:50:58.802Z,99675
2018-04-17T19:53:31.097Z,99674
2018-04-17T19:56:03.395Z,99681
2018-04-17T19:58:35.676Z,99687
2018-04-17T20:01:08.653Z,99688
2018-04-17T20:03:41.713Z,99687
2018-04-17T20:06:13.913Z,99691
2018-04-17T20:08:46.154Z,99693
2018-04-17T20:11:18.393Z,99699
2018-04-17T20:13:50.733Z,99695
2018-04-17T20:16:22.875Z,99708
2018-04-17T20:18:55.834Z,99710
2018-04-17T20:21:28.092Z,99711
2018-04-17T20:24:00.394Z,99714
2018-04-17T20:26:32.617Z,99712
2018-04-17T20:29:04.833Z,99707
2018-04-17T20:31:37.167Z,99716
2018-04-17T20:34:09.512Z,99721
2018-04-17T20:36:41.755Z,99717
2018-04-17T20:39:14.093Z,99713
2018-04-17T20:41:46.355Z,99718
2018-04-17T20:44:18.633Z,99721
2018-04-17T20:46:50.873Z,99726
2018-04-17T20:49:23.218Z,99732
2018-04-17T20:51:55.435Z,99725
2018-04-17T20:54:27.664Z,99726
2018-04-17T20:56:59.978Z,99727
2018-04-17T20:59:33.097Z,99731
2018-04-17T21:02:05.274Z,99735
2018-04-17T21:04:37.619Z,99736
2018-04-17T21:07:09.954Z,99738
2018-04-17T21:09:43.593Z,99734
2018-04-17T21:12:16.634Z,99738
2018-04-17T21:14:48.874Z,99741
2018-04-17T21:17:21.194Z,99741
2018-04-17T21:19:54.158Z,99745
2018-04-17T21:22:26.393Z,99749
2018-04-17T21:24:59.433Z,99746
2018-04-17T21:27:31.553Z,99747
2018-04-17T21:30:03.853Z,99751
2018-04-17T21:32:36.174Z,99756
2018-04-17T21:35:09.177Z,99762
2018-04-17T21:37:42.217Z,99761
2018-04-17T21:40:14.537Z,99770
2018-04-17T21:42:47.514Z,99777
2018-04-17T21:45:20.568Z,99777
2018-04-17T21:47:52.857Z,99780
2018-04-17T21:50:25.134Z,99784
2018-04-17T21:52:57.300Z,99790
2018-04-17T21:55:29.513Z,99797
2018-04-17T21:58:01.694Z,99802
2018-04-17T22:00:33.993Z,99800
2018-04-17T22:03:06.137Z,99806
2018-04-17T22:05:38.333Z,99812
2018-04-17T22:08:10.493Z,99818
2018-04-17T22:10:42.859Z,99813
2018-04-17T22:13:15.097Z,99811
2018-04-17T22:15:47.418Z,99820
2018-04-17T22:18:20.413Z,99825
2018-04-17T22:20:53.373Z,99826
2018-04-17T22:23:25.633Z,99826
2018-04-17T22:25:57.932Z,99832
2018-04-17T22:28:30.113Z,99830
2018-04-17T22:31:02.313Z,99831
2018-04-17T22:33:34.573Z,99834
2018-04-17T22:36:06.793Z,99832
2018-04-17T22:38:39.995Z,99841
2018-04-17T22:41:13.113Z,99839
2018-04-17T22:43:45.313Z,99838
2018-04-17T22:46:17.497Z,99840
2018-04-17T22:48:49.773Z,99846
2018-04-17T22:51:22.138Z,99842
2018-04-17T22:53:54.457Z,99846
2018-04-17T22:56:26.781Z,99847
2018-04-17T22:58:59.113Z,99845
2018-04-17T23:01:31.419Z,99863
2018-04-17T23:04:03.633Z,99864
2018-04-17T23:06:35.913Z,99863
2018-04-17T23:09:08.093Z,99860
2018-04-17T23:11:40.333Z,99867
2018-04-17T23:14:12.494Z,99869
2018-04-17T23:16:44.754Z,99870
2018-04-17T23:19:16.954Z,99874
2018-04-17T23:21:49.178Z,99880
2018-04-17T23:24:21.353Z,99876
2018-04-17T23:26:53.693Z,99882
2018-04-17T23:29:25.897Z,99884
2018-04-17T23:31:58.145Z,99887
2018-04-17T23:34:30.378Z,99882
2018-04-17T23:37:02.755Z,99889
2018-04-17T23:39:35.033Z,99886
2018-04-17T23:42:07.313Z,99889
2018-04-17T23:44:39.533Z,99896
2018-04-17T23:47:11.773Z,99892
2018-04-17T23:49:44.013Z,99891
2018-04-17T23:52:16.314Z,99891
2018-04-17T23:54:48.513Z,99903
2018-04-17T23:57:20.757Z,99893
2018-04-17T23:59:52.994Z,99892
